sensor_id;sensor_type;location;lat;lon;timestamp;P1;durP1;ratioP1;P2;durP2;ratioP2
67248;SDS011;63247;54.300;18.592;2023-04-25T00:01:02;10.40;;;5.10;;
67248;SDS011;63247;54.300;18.592;2023-04-25T00:03:29;12.25;;;5.82;;
67248;SDS011;63247;54.300;18.592;2023-04-25T00:05:55;10.45;;;5.80;;
67248;SDS011;63247;54.300;18.592;2023-04-25T00:08:21;11.48;;;6.43;;
67248;SDS011;63247;54.300;18.592;2023-04-25T00:10:47;10.55;;;5.93;;
67248;SDS011;63247;54.300;18.592;2023-04-25T00:13:14;11.10;;;5.70;;
67248;SDS011;63247;54.300;18.592;2023-04-25T00:15:40;11.20;;;6.00;;
67248;SDS011;63247;54.300;18.592;2023-04-25T00:18:06;10.98;;;5.75;;
67248;SDS011;63247;54.300;18.592;2023-04-25T00:20:32;10.77;;;5.83;;
67248;SDS011;63247;54.300;18.592;2023-04-25T00:22:57;10.60;;;5.40;;
67248;SDS011;63247;54.300;18.592;2023-04-25T00:25:23;12.17;;;5.43;;
67248;SDS011;63247;54.300;18.592;2023-04-25T00:27:48;10.73;;;5.50;;
67248;SDS011;63247;54.300;18.592;2023-04-25T00:30:14;9.43;;;4.93;;
67248;SDS011;63247;54.300;18.592;2023-04-25T00:32:39;10.32;;;5.03;;
67248;SDS011;63247;54.300;18.592;2023-04-25T00:35:05;7.87;;;4.70;;
67248;SDS011;63247;54.300;18.592;2023-04-25T00:37:31;9.80;;;4.87;;
67248;SDS011;63247;54.300;18.592;2023-04-25T00:39:57;9.00;;;5.28;;
67248;SDS011;63247;54.300;18.592;2023-04-25T00:42:23;10.73;;;5.13;;
67248;SDS011;63247;54.300;18.592;2023-04-25T00:44:50;9.40;;;5.07;;
67248;SDS011;63247;54.300;18.592;2023-04-25T00:47:17;11.48;;;5.18;;
67248;SDS011;63247;54.300;18.592;2023-04-25T00:49:43;11.30;;;5.17;;
67248;SDS011;63247;54.300;18.592;2023-04-25T00:52:08;9.48;;;5.15;;
67248;SDS011;63247;54.300;18.592;2023-04-25T00:54:34;9.98;;;5.00;;
67248;SDS011;63247;54.300;18.592;2023-04-25T00:57:00;9.70;;;4.90;;
67248;SDS011;63247;54.300;18.592;2023-04-25T00:59:26;8.40;;;4.93;;
67248;SDS011;63247;54.300;18.592;2023-04-25T01:01:53;9.37;;;5.10;;
67248;SDS011;63247;54.300;18.592;2023-04-25T01:04:18;9.25;;;5.10;;
67248;SDS011;63247;54.300;18.592;2023-04-25T01:06:44;9.17;;;5.20;;
67248;SDS011;63247;54.300;18.592;2023-04-25T01:09:10;10.07;;;5.30;;
67248;SDS011;63247;54.300;18.592;2023-04-25T01:11:35;8.90;;;5.10;;
67248;SDS011;63247;54.300;18.592;2023-04-25T01:14:01;10.73;;;5.13;;
67248;SDS011;63247;54.300;18.592;2023-04-25T01:16:27;10.57;;;5.70;;
67248;SDS011;63247;54.300;18.592;2023-04-25T01:18:52;11.80;;;5.82;;
67248;SDS011;63247;54.300;18.592;2023-04-25T01:21:19;11.10;;;5.87;;
67248;SDS011;63247;54.300;18.592;2023-04-25T01:23:44;12.00;;;6.25;;
67248;SDS011;63247;54.300;18.592;2023-04-25T01:26:10;10.52;;;5.88;;
67248;SDS011;63247;54.300;18.592;2023-04-25T01:28:37;10.27;;;5.95;;
67248;SDS011;63247;54.300;18.592;2023-04-25T01:31:06;12.90;;;6.50;;
67248;SDS011;63247;54.300;18.592;2023-04-25T01:33:31;10.07;;;5.88;;
67248;SDS011;63247;54.300;18.592;2023-04-25T01:35:57;10.80;;;5.73;;
67248;SDS011;63247;54.300;18.592;2023-04-25T01:38:22;10.97;;;6.43;;
67248;SDS011;63247;54.300;18.592;2023-04-25T01:40:48;12.07;;;6.40;;
67248;SDS011;63247;54.300;18.592;2023-04-25T01:43:15;11.57;;;6.20;;
67248;SDS011;63247;54.300;18.592;2023-04-25T01:45:41;12.20;;;6.33;;
67248;SDS011;63247;54.300;18.592;2023-04-25T01:48:08;12.27;;;6.75;;
67248;SDS011;63247;54.300;18.592;2023-04-25T01:50:34;11.57;;;6.72;;
67248;SDS011;63247;54.300;18.592;2023-04-25T01:52:59;11.17;;;6.47;;
67248;SDS011;63247;54.300;18.592;2023-04-25T01:55:26;11.75;;;6.80;;
67248;SDS011;63247;54.300;18.592;2023-04-25T01:57:52;11.87;;;6.20;;
67248;SDS011;63247;54.300;18.592;2023-04-25T02:00:17;12.88;;;6.53;;
67248;SDS011;63247;54.300;18.592;2023-04-25T02:02:43;12.82;;;6.43;;
67248;SDS011;63247;54.300;18.592;2023-04-25T02:05:08;11.70;;;6.33;;
67248;SDS011;63247;54.300;18.592;2023-04-25T02:07:34;11.75;;;6.38;;
67248;SDS011;63247;54.300;18.592;2023-04-25T02:09:59;11.97;;;6.50;;
67248;SDS011;63247;54.300;18.592;2023-04-25T02:12:25;13.43;;;6.37;;
67248;SDS011;63247;54.300;18.592;2023-04-25T02:14:52;13.23;;;6.53;;
67248;SDS011;63247;54.300;18.592;2023-04-25T02:17:17;11.50;;;6.50;;
67248;SDS011;63247;54.300;18.592;2023-04-25T02:19:43;11.37;;;6.53;;
67248;SDS011;63247;54.300;18.592;2023-04-25T02:22:09;12.90;;;6.40;;
67248;SDS011;63247;54.300;18.592;2023-04-25T02:24:35;11.70;;;6.60;;
67248;SDS011;63247;54.300;18.592;2023-04-25T02:27:01;12.50;;;6.55;;
67248;SDS011;63247;54.300;18.592;2023-04-25T02:29:26;12.87;;;6.20;;
67248;SDS011;63247;54.300;18.592;2023-04-25T02:31:51;11.47;;;6.90;;
67248;SDS011;63247;54.300;18.592;2023-04-25T02:34:17;13.80;;;6.73;;
67248;SDS011;63247;54.300;18.592;2023-04-25T02:36:42;12.53;;;6.67;;
67248;SDS011;63247;54.300;18.592;2023-04-25T02:39:08;15.50;;;7.10;;
67248;SDS011;63247;54.300;18.592;2023-04-25T02:41:33;12.90;;;6.83;;
67248;SDS011;63247;54.300;18.592;2023-04-25T02:43:59;11.97;;;6.60;;
67248;SDS011;63247;54.300;18.592;2023-04-25T02:46:24;13.63;;;7.10;;
67248;SDS011;63247;54.300;18.592;2023-04-25T02:48:49;14.00;;;7.57;;
67248;SDS011;63247;54.300;18.592;2023-04-25T02:51:15;13.15;;;7.22;;
67248;SDS011;63247;54.300;18.592;2023-04-25T02:53:41;14.73;;;7.75;;
67248;SDS011;63247;54.300;18.592;2023-04-25T02:56:07;15.48;;;7.47;;
67248;SDS011;63247;54.300;18.592;2023-04-25T02:58:32;13.63;;;7.40;;
67248;SDS011;63247;54.300;18.592;2023-04-25T03:00:57;14.47;;;7.33;;
67248;SDS011;63247;54.300;18.592;2023-04-25T03:03:23;13.30;;;7.77;;
67248;SDS011;63247;54.300;18.592;2023-04-25T03:05:49;14.95;;;8.65;;
67248;SDS011;63247;54.300;18.592;2023-04-25T03:08:15;13.05;;;7.30;;
67248;SDS011;63247;54.300;18.592;2023-04-25T03:10:41;14.30;;;7.43;;
67248;SDS011;63247;54.300;18.592;2023-04-25T03:13:06;13.80;;;7.60;;
67248;SDS011;63247;54.300;18.592;2023-04-25T03:15:31;12.30;;;7.10;;
67248;SDS011;63247;54.300;18.592;2023-04-25T03:17:57;14.63;;;7.37;;
67248;SDS011;63247;54.300;18.592;2023-04-25T03:20:22;13.80;;;7.80;;
67248;SDS011;63247;54.300;18.592;2023-04-25T03:22:48;13.20;;;7.28;;
67248;SDS011;63247;54.300;18.592;2023-04-25T03:25:13;15.37;;;8.13;;
67248;SDS011;63247;54.300;18.592;2023-04-25T03:27:39;14.13;;;8.00;;
67248;SDS011;63247;54.300;18.592;2023-04-25T03:30:06;15.38;;;8.00;;
67248;SDS011;63247;54.300;18.592;2023-04-25T03:32:33;14.75;;;8.00;;
67248;SDS011;63247;54.300;18.592;2023-04-25T03:34:58;14.20;;;8.47;;
67248;SDS011;63247;54.300;18.592;2023-04-25T03:37:24;15.43;;;8.60;;
67248;SDS011;63247;54.300;18.592;2023-04-25T03:39:49;16.67;;;8.17;;
67248;SDS011;63247;54.300;18.592;2023-04-25T03:42:15;15.40;;;8.77;;
67248;SDS011;63247;54.300;18.592;2023-04-25T03:44:40;16.58;;;8.57;;
67248;SDS011;63247;54.300;18.592;2023-04-25T03:47:06;17.90;;;8.88;;
67248;SDS011;63247;54.300;18.592;2023-04-25T03:49:32;15.43;;;8.60;;
67248;SDS011;63247;54.300;18.592;2023-04-25T03:51:57;15.63;;;9.20;;
67248;SDS011;63247;54.300;18.592;2023-04-25T03:54:23;17.93;;;8.93;;
67248;SDS011;63247;54.300;18.592;2023-04-25T03:56:48;19.40;;;10.07;;
67248;SDS011;63247;54.300;18.592;2023-04-25T03:59:14;16.47;;;8.10;;
67248;SDS011;63247;54.300;18.592;2023-04-25T04:01:39;16.60;;;8.40;;
67248;SDS011;63247;54.300;18.592;2023-04-25T04:04:05;13.85;;;7.00;;
67248;SDS011;63247;54.300;18.592;2023-04-25T04:06:30;14.23;;;7.13;;
67248;SDS011;63247;54.300;18.592;2023-04-25T04:08:56;14.90;;;7.20;;
67248;SDS011;63247;54.300;18.592;2023-04-25T04:11:21;13.80;;;7.00;;
67248;SDS011;63247;54.300;18.592;2023-04-25T04:13:47;14.82;;;6.85;;
67248;SDS011;63247;54.300;18.592;2023-04-25T04:16:12;12.87;;;6.80;;
67248;SDS011;63247;54.300;18.592;2023-04-25T04:18:38;13.00;;;6.27;;
67248;SDS011;63247;54.300;18.592;2023-04-25T04:21:03;13.97;;;6.37;;
67248;SDS011;63247;54.300;18.592;2023-04-25T04:23:28;12.25;;;6.03;;
67248;SDS011;63247;54.300;18.592;2023-04-25T04:25:54;11.83;;;5.70;;
67248;SDS011;63247;54.300;18.592;2023-04-25T04:28:21;13.43;;;6.28;;
67248;SDS011;63247;54.300;18.592;2023-04-25T04:30:46;12.90;;;6.80;;
67248;SDS011;63247;54.300;18.592;2023-04-25T04:33:12;13.77;;;6.75;;
67248;SDS011;63247;54.300;18.592;2023-04-25T04:35:40;14.33;;;6.50;;
67248;SDS011;63247;54.300;18.592;2023-04-25T04:38:06;14.63;;;6.85;;
67248;SDS011;63247;54.300;18.592;2023-04-25T04:40:32;13.15;;;6.68;;
67248;SDS011;63247;54.300;18.592;2023-04-25T04:42:57;13.50;;;6.43;;
67248;SDS011;63247;54.300;18.592;2023-04-25T04:45:23;16.37;;;6.63;;
67248;SDS011;63247;54.300;18.592;2023-04-25T04:47:49;12.82;;;6.18;;
67248;SDS011;63247;54.300;18.592;2023-04-25T04:50:15;14.82;;;6.70;;
67248;SDS011;63247;54.300;18.592;2023-04-25T04:52:41;11.80;;;5.83;;
67248;SDS011;63247;54.300;18.592;2023-04-25T04:55:07;12.57;;;6.35;;
67248;SDS011;63247;54.300;18.592;2023-04-25T04:57:33;13.60;;;6.53;;
67248;SDS011;63247;54.300;18.592;2023-04-25T04:59:59;12.98;;;6.57;;
67248;SDS011;63247;54.300;18.592;2023-04-25T05:02:25;16.07;;;6.87;;
67248;SDS011;63247;54.300;18.592;2023-04-25T05:04:51;13.35;;;6.57;;
67248;SDS011;63247;54.300;18.592;2023-04-25T05:07:17;13.37;;;6.17;;
67248;SDS011;63247;54.300;18.592;2023-04-25T05:09:43;14.27;;;6.40;;
67248;SDS011;63247;54.300;18.592;2023-04-25T05:12:08;14.57;;;6.10;;
67248;SDS011;63247;54.300;18.592;2023-04-25T05:14:34;12.32;;;5.90;;
67248;SDS011;63247;54.300;18.592;2023-04-25T05:17:00;12.17;;;6.03;;
67248;SDS011;63247;54.300;18.592;2023-04-25T05:19:25;12.27;;;5.90;;
67248;SDS011;63247;54.300;18.592;2023-04-25T05:21:51;12.23;;;5.83;;
67248;SDS011;63247;54.300;18.592;2023-04-25T05:24:17;13.45;;;6.13;;
67248;SDS011;63247;54.300;18.592;2023-04-25T05:26:42;11.47;;;5.93;;
67248;SDS011;63247;54.300;18.592;2023-04-25T05:29:07;12.83;;;6.10;;
67248;SDS011;63247;54.300;18.592;2023-04-25T05:31:33;12.83;;;6.87;;
67248;SDS011;63247;54.300;18.592;2023-04-25T05:33:59;13.40;;;6.60;;
67248;SDS011;63247;54.300;18.592;2023-04-25T05:36:25;13.83;;;6.67;;
67248;SDS011;63247;54.300;18.592;2023-04-25T05:38:51;13.90;;;6.05;;
67248;SDS011;63247;54.300;18.592;2023-04-25T05:41:16;12.47;;;6.23;;
67248;SDS011;63247;54.300;18.592;2023-04-25T05:43:41;12.87;;;5.90;;
67248;SDS011;63247;54.300;18.592;2023-04-25T05:46:12;12.23;;;4.72;;
67248;SDS011;63247;54.300;18.592;2023-04-25T05:48:37;10.63;;;4.70;;
67248;SDS011;63247;54.300;18.592;2023-04-25T05:51:03;12.73;;;5.40;;
67248;SDS011;63247;54.300;18.592;2023-04-25T05:53:28;9.80;;;4.78;;
67248;SDS011;63247;54.300;18.592;2023-04-25T05:55:54;10.73;;;4.50;;
67248;SDS011;63247;54.300;18.592;2023-04-25T05:58:19;11.87;;;5.27;;
67248;SDS011;63247;54.300;18.592;2023-04-25T06:00:45;9.97;;;4.83;;
67248;SDS011;63247;54.300;18.592;2023-04-25T06:03:11;10.75;;;4.70;;
67248;SDS011;63247;54.300;18.592;2023-04-25T06:05:39;11.77;;;5.50;;
67248;SDS011;63247;54.300;18.592;2023-04-25T06:08:06;13.33;;;4.73;;
67248;SDS011;63247;54.300;18.592;2023-04-25T06:10:31;12.63;;;4.47;;
67248;SDS011;63247;54.300;18.592;2023-04-25T06:12:57;10.80;;;4.33;;
67248;SDS011;63247;54.300;18.592;2023-04-25T06:15:22;12.47;;;3.50;;
67248;SDS011;63247;54.300;18.592;2023-04-25T06:17:47;9.57;;;4.10;;
67248;SDS011;63247;54.300;18.592;2023-04-25T06:20:13;11.85;;;4.35;;
67248;SDS011;63247;54.300;18.592;2023-04-25T06:22:39;9.07;;;4.00;;
67248;SDS011;63247;54.300;18.592;2023-04-25T06:25:04;10.87;;;4.23;;
67248;SDS011;63247;54.300;18.592;2023-04-25T06:27:32;10.10;;;4.13;;
67248;SDS011;63247;54.300;18.592;2023-04-25T06:29:57;8.50;;;3.83;;
67248;SDS011;63247;54.300;18.592;2023-04-25T06:32:23;11.37;;;4.10;;
67248;SDS011;63247;54.300;18.592;2023-04-25T06:34:48;11.70;;;4.37;;
67248;SDS011;63247;54.300;18.592;2023-04-25T06:37:14;8.63;;;4.00;;
67248;SDS011;63247;54.300;18.592;2023-04-25T06:39:39;11.80;;;3.80;;
67248;SDS011;63247;54.300;18.592;2023-04-25T06:42:04;9.93;;;4.00;;
67248;SDS011;63247;54.300;18.592;2023-04-25T06:44:30;8.90;;;4.47;;
67248;SDS011;63247;54.300;18.592;2023-04-25T06:46:55;10.93;;;4.50;;
67248;SDS011;63247;54.300;18.592;2023-04-25T06:49:21;10.63;;;4.53;;
67248;SDS011;63247;54.300;18.592;2023-04-25T06:51:46;10.95;;;4.15;;
67248;SDS011;63247;54.300;18.592;2023-04-25T06:54:12;11.37;;;4.27;;
67248;SDS011;63247;54.300;18.592;2023-04-25T06:56:38;10.27;;;4.50;;
67248;SDS011;63247;54.300;18.592;2023-04-25T06:59:04;12.00;;;4.87;;
67248;SDS011;63247;54.300;18.592;2023-04-25T07:01:29;10.67;;;4.70;;
67248;SDS011;63247;54.300;18.592;2023-04-25T07:03:55;8.98;;;4.38;;
67248;SDS011;63247;54.300;18.592;2023-04-25T07:06:20;9.80;;;4.30;;
67248;SDS011;63247;54.300;18.592;2023-04-25T07:08:46;9.27;;;4.30;;
67248;SDS011;63247;54.300;18.592;2023-04-25T07:11:11;9.87;;;4.30;;
67248;SDS011;63247;54.300;18.592;2023-04-25T07:13:37;9.17;;;4.03;;
67248;SDS011;63247;54.300;18.592;2023-04-25T07:16:02;8.05;;;3.83;;
67248;SDS011;63247;54.300;18.592;2023-04-25T07:18:28;8.25;;;4.07;;
67248;SDS011;63247;54.300;18.592;2023-04-25T07:20:53;9.83;;;4.30;;
67248;SDS011;63247;54.300;18.592;2023-04-25T07:23:19;8.00;;;4.00;;
67248;SDS011;63247;54.300;18.592;2023-04-25T07:25:44;8.70;;;3.65;;
67248;SDS011;63247;54.300;18.592;2023-04-25T07:28:10;8.50;;;3.77;;
67248;SDS011;63247;54.300;18.592;2023-04-25T07:30:35;9.43;;;3.57;;
67248;SDS011;63247;54.300;18.592;2023-04-25T07:33:01;8.52;;;4.10;;
67248;SDS011;63247;54.300;18.592;2023-04-25T07:35:27;10.37;;;3.93;;
67248;SDS011;63247;54.300;18.592;2023-04-25T07:37:52;8.63;;;3.70;;
67248;SDS011;63247;54.300;18.592;2023-04-25T07:40:18;8.30;;;3.70;;
67248;SDS011;63247;54.300;18.592;2023-04-25T07:42:43;8.25;;;3.80;;
67248;SDS011;63247;54.300;18.592;2023-04-25T07:45:08;9.33;;;3.80;;
67248;SDS011;63247;54.300;18.592;2023-04-25T07:47:34;8.63;;;3.70;;
67248;SDS011;63247;54.300;18.592;2023-04-25T07:50:00;9.32;;;4.35;;
67248;SDS011;63247;54.300;18.592;2023-04-25T07:52:26;9.17;;;3.63;;
67248;SDS011;63247;54.300;18.592;2023-04-25T07:54:51;7.40;;;3.58;;
67248;SDS011;63247;54.300;18.592;2023-04-25T07:57:17;9.33;;;3.53;;
67248;SDS011;63247;54.300;18.592;2023-04-25T07:59:43;7.22;;;3.40;;
67248;SDS011;63247;54.300;18.592;2023-04-25T08:02:08;6.87;;;3.43;;
67248;SDS011;63247;54.300;18.592;2023-04-25T08:04:34;7.20;;;3.20;;
67248;SDS011;63247;54.300;18.592;2023-04-25T08:06:59;7.57;;;3.20;;
67248;SDS011;63247;54.300;18.592;2023-04-25T08:09:25;6.75;;;3.20;;
67248;SDS011;63247;54.300;18.592;2023-04-25T08:11:50;5.90;;;2.77;;
67248;SDS011;63247;54.300;18.592;2023-04-25T08:14:16;6.93;;;2.90;;
67248;SDS011;63247;54.300;18.592;2023-04-25T08:16:41;7.60;;;3.10;;
67248;SDS011;63247;54.300;18.592;2023-04-25T08:19:07;7.15;;;3.17;;
67248;SDS011;63247;54.300;18.592;2023-04-25T08:21:32;6.03;;;2.80;;
67248;SDS011;63247;54.300;18.592;2023-04-25T08:23:58;6.65;;;2.67;;
67248;SDS011;63247;54.300;18.592;2023-04-25T08:26:24;6.67;;;2.77;;
67248;SDS011;63247;54.300;18.592;2023-04-25T08:28:50;5.93;;;2.85;;
67248;SDS011;63247;54.300;18.592;2023-04-25T08:31:15;5.87;;;2.50;;
67248;SDS011;63247;54.300;18.592;2023-04-25T08:33:41;5.60;;;2.42;;
67248;SDS011;63247;54.300;18.592;2023-04-25T08:36:07;5.73;;;2.20;;
67248;SDS011;63247;54.300;18.592;2023-04-25T08:38:32;5.07;;;2.50;;
67248;SDS011;63247;54.300;18.592;2023-04-25T08:40:58;5.47;;;1.92;;
67248;SDS011;63247;54.300;18.592;2023-04-25T08:43:25;7.22;;;2.10;;
67248;SDS011;63247;54.300;18.592;2023-04-25T08:45:51;7.07;;;2.20;;
67248;SDS011;63247;54.300;18.592;2023-04-25T08:48:19;5.95;;;2.00;;
67248;SDS011;63247;54.300;18.592;2023-04-25T08:50:45;5.90;;;2.03;;
67248;SDS011;63247;54.300;18.592;2023-04-25T08:53:16;4.47;;;1.90;;
67248;SDS011;63247;54.300;18.592;2023-04-25T08:55:44;4.45;;;2.08;;
67248;SDS011;63247;54.300;18.592;2023-04-25T08:58:11;6.03;;;2.30;;
67248;SDS011;63247;54.300;18.592;2023-04-25T09:00:38;4.78;;;2.00;;
67248;SDS011;63247;54.300;18.592;2023-04-25T09:03:04;5.20;;;2.00;;
67248;SDS011;63247;54.300;18.592;2023-04-25T09:05:30;4.00;;;1.70;;
67248;SDS011;63247;54.300;18.592;2023-04-25T09:07:55;4.97;;;1.83;;
67248;SDS011;63247;54.300;18.592;2023-04-25T09:10:21;6.57;;;1.87;;
67248;SDS011;63247;54.300;18.592;2023-04-25T09:13:03;4.90;;;2.13;;
67248;SDS011;63247;54.300;18.592;2023-04-25T09:15:47;4.80;;;2.15;;
67248;SDS011;63247;54.300;18.592;2023-04-25T09:18:13;4.07;;;2.03;;
67248;SDS011;63247;54.300;18.592;2023-04-25T09:20:46;5.63;;;1.90;;
67248;SDS011;63247;54.300;18.592;2023-04-25T09:23:11;6.65;;;2.00;;
67248;SDS011;63247;54.300;18.592;2023-04-25T09:25:37;4.73;;;2.20;;
67248;SDS011;63247;54.300;18.592;2023-04-25T09:28:08;10.68;;;2.20;;
67248;SDS011;63247;54.300;18.592;2023-04-25T09:30:34;3.87;;;1.87;;
67248;SDS011;63247;54.300;18.592;2023-04-25T09:33:07;6.13;;;1.95;;
67248;SDS011;63247;54.300;18.592;2023-04-25T09:35:37;4.67;;;2.30;;
67248;SDS011;63247;54.300;18.592;2023-04-25T09:38:10;5.60;;;2.10;;
67248;SDS011;63247;54.300;18.592;2023-04-25T09:40:44;4.97;;;2.20;;
67248;SDS011;63247;54.300;18.592;2023-04-25T09:43:20;5.47;;;2.10;;
67248;SDS011;63247;54.300;18.592;2023-04-25T09:45:46;4.75;;;2.00;;
67248;SDS011;63247;54.300;18.592;2023-04-25T09:48:16;4.93;;;2.17;;
67248;SDS011;63247;54.300;18.592;2023-04-25T09:51:31;5.32;;;2.50;;
67248;SDS011;63247;54.300;18.592;2023-04-25T09:53:32;7.32;;;2.88;;
67248;SDS011;63247;54.300;18.592;2023-04-25T09:56:06;8.27;;;3.40;;
67248;SDS011;63247;54.300;18.592;2023-04-25T09:58:33;7.07;;;2.77;;
67248;SDS011;63247;54.300;18.592;2023-04-25T10:01:01;7.55;;;2.75;;
67248;SDS011;63247;54.300;18.592;2023-04-25T10:03:31;8.52;;;2.70;;
67248;SDS011;63247;54.300;18.592;2023-04-25T10:06:01;5.38;;;2.47;;
67248;SDS011;63247;54.300;18.592;2023-04-25T10:08:36;4.68;;;2.30;;
67248;SDS011;63247;54.300;18.592;2023-04-25T10:11:04;4.57;;;2.40;;
67248;SDS011;63247;54.300;18.592;2023-04-25T10:13:33;5.47;;;2.20;;
67248;SDS011;63247;54.300;18.592;2023-04-25T10:16:00;5.40;;;2.35;;
67248;SDS011;63247;54.300;18.592;2023-04-25T10:18:28;7.07;;;2.55;;
67248;SDS011;63247;54.300;18.592;2023-04-25T10:20:55;5.25;;;2.40;;
67248;SDS011;63247;54.300;18.592;2023-04-25T10:23:22;6.80;;;2.40;;
67248;SDS011;63247;54.300;18.592;2023-04-25T10:25:49;6.93;;;2.83;;
67248;SDS011;63247;54.300;18.592;2023-04-25T10:28:16;6.70;;;3.03;;
67248;SDS011;63247;54.300;18.592;2023-04-25T10:31:00;7.43;;;2.40;;
67248;SDS011;63247;54.300;18.592;2023-04-25T10:33:37;4.95;;;2.22;;
67248;SDS011;63247;54.300;18.592;2023-04-25T10:38:56;4.73;;;2.50;;
67248;SDS011;63247;54.300;18.592;2023-04-25T10:41:25;5.20;;;2.50;;
67248;SDS011;63247;54.300;18.592;2023-04-25T10:43:58;5.10;;;2.60;;
67248;SDS011;63247;54.300;18.592;2023-04-25T10:46:26;6.70;;;2.28;;
67248;SDS011;63247;54.300;18.592;2023-04-25T10:48:56;5.10;;;2.38;;
67248;SDS011;63247;54.300;18.592;2023-04-25T10:51:26;4.15;;;1.90;;
67248;SDS011;63247;54.300;18.592;2023-04-25T10:59:10;4.20;;;1.85;;
67248;SDS011;63247;54.300;18.592;2023-04-25T11:07:19;4.72;;;2.20;;
67248;SDS011;63247;54.300;18.592;2023-04-25T11:09:55;5.73;;;2.13;;
67248;SDS011;63247;54.300;18.592;2023-04-25T11:12:21;5.57;;;2.58;;
67248;SDS011;63247;54.300;18.592;2023-04-25T11:14:46;5.03;;;2.40;;
67248;SDS011;63247;54.300;18.592;2023-04-25T11:17:11;4.20;;;2.10;;
67248;SDS011;63247;54.300;18.592;2023-04-25T11:19:37;4.27;;;1.87;;
67248;SDS011;63247;54.300;18.592;2023-04-25T11:22:02;3.72;;;1.85;;
67248;SDS011;63247;54.300;18.592;2023-04-25T11:24:29;5.57;;;1.90;;
67248;SDS011;63247;54.300;18.592;2023-04-25T11:26:56;4.15;;;2.00;;
67248;SDS011;63247;54.300;18.592;2023-04-25T11:29:23;9.13;;;3.28;;
67248;SDS011;63247;54.300;18.592;2023-04-25T11:31:52;6.05;;;2.20;;
67248;SDS011;63247;54.300;18.592;2023-04-25T11:34:18;6.17;;;2.40;;
67248;SDS011;63247;54.300;18.592;2023-04-25T11:36:44;6.38;;;2.47;;
67248;SDS011;63247;54.300;18.592;2023-04-25T11:39:11;8.48;;;2.95;;
67248;SDS011;63247;54.300;18.592;2023-04-25T11:41:40;8.82;;;2.88;;
67248;SDS011;63247;54.300;18.592;2023-04-25T11:44:06;6.47;;;2.67;;
67248;SDS011;63247;54.300;18.592;2023-04-25T11:46:35;5.28;;;2.40;;
67248;SDS011;63247;54.300;18.592;2023-04-25T11:49:00;9.03;;;3.70;;
67248;SDS011;63247;54.300;18.592;2023-04-25T11:51:28;6.20;;;2.30;;
67248;SDS011;63247;54.300;18.592;2023-04-25T11:53:55;5.45;;;2.38;;
67248;SDS011;63247;54.300;18.592;2023-04-25T11:56:20;7.90;;;3.10;;
67248;SDS011;63247;54.300;18.592;2023-04-25T12:01:31;6.73;;;2.50;;
67248;SDS011;63247;54.300;18.592;2023-04-25T12:03:58;6.60;;;2.70;;
67248;SDS011;63247;54.300;18.592;2023-04-25T12:06:36;6.63;;;2.60;;
67248;SDS011;63247;54.300;18.592;2023-04-25T12:09:06;7.32;;;2.47;;
67248;SDS011;63247;54.300;18.592;2023-04-25T12:11:39;5.95;;;2.20;;
67248;SDS011;63247;54.300;18.592;2023-04-25T12:14:09;5.43;;;1.90;;
67248;SDS011;63247;54.300;18.592;2023-04-25T12:16:45;7.63;;;2.03;;
67248;SDS011;63247;54.300;18.592;2023-04-25T12:19:14;8.52;;;2.30;;
67248;SDS011;63247;54.300;18.592;2023-04-25T12:21:43;8.30;;;2.35;;
67248;SDS011;63247;54.300;18.592;2023-04-25T12:24:12;6.05;;;2.15;;
67248;SDS011;63247;54.300;18.592;2023-04-25T12:26:48;5.53;;;2.10;;
67248;SDS011;63247;54.300;18.592;2023-04-25T12:29:20;6.50;;;2.08;;
67248;SDS011;63247;54.300;18.592;2023-04-25T12:31:47;7.65;;;2.20;;
67248;SDS011;63247;54.300;18.592;2023-04-25T12:34:13;6.07;;;2.10;;
67248;SDS011;63247;54.300;18.592;2023-04-25T12:36:39;5.73;;;2.20;;
67248;SDS011;63247;54.300;18.592;2023-04-25T12:39:05;7.22;;;2.28;;
67248;SDS011;63247;54.300;18.592;2023-04-25T12:41:31;5.78;;;2.33;;
67248;SDS011;63247;54.300;18.592;2023-04-25T12:43:57;6.20;;;2.40;;
67248;SDS011;63247;54.300;18.592;2023-04-25T12:46:22;5.67;;;2.23;;
67248;SDS011;63247;54.300;18.592;2023-04-25T12:48:48;7.63;;;2.33;;
67248;SDS011;63247;54.300;18.592;2023-04-25T12:51:14;5.87;;;2.57;;
67248;SDS011;63247;54.300;18.592;2023-04-25T12:53:39;6.63;;;2.72;;
67248;SDS011;63247;54.300;18.592;2023-04-25T12:56:06;6.57;;;2.70;;
67248;SDS011;63247;54.300;18.592;2023-04-25T12:58:32;6.80;;;2.60;;
67248;SDS011;63247;54.300;18.592;2023-04-25T13:00:58;6.50;;;2.65;;
67248;SDS011;63247;54.300;18.592;2023-04-25T13:03:24;7.80;;;2.60;;
67248;SDS011;63247;54.300;18.592;2023-04-25T13:05:50;7.82;;;2.58;;
67248;SDS011;63247;54.300;18.592;2023-04-25T13:08:17;6.75;;;2.60;;
67248;SDS011;63247;54.300;18.592;2023-04-25T13:10:47;7.20;;;2.90;;
67248;SDS011;63247;54.300;18.592;2023-04-25T13:13:12;7.27;;;2.73;;
67248;SDS011;63247;54.300;18.592;2023-04-25T13:15:38;9.80;;;3.17;;
67248;SDS011;63247;54.300;18.592;2023-04-25T13:18:04;7.97;;;3.00;;
67248;SDS011;63247;54.300;18.592;2023-04-25T13:20:32;7.20;;;2.88;;
67248;SDS011;63247;54.300;18.592;2023-04-25T13:22:58;6.43;;;3.10;;
67248;SDS011;63247;54.300;18.592;2023-04-25T13:25:23;10.02;;;3.30;;
67248;SDS011;63247;54.300;18.592;2023-04-25T13:27:49;8.70;;;3.47;;
67248;SDS011;63247;54.300;18.592;2023-04-25T13:30:14;9.73;;;3.60;;
67248;SDS011;63247;54.300;18.592;2023-04-25T13:32:40;9.80;;;3.13;;
67248;SDS011;63247;54.300;18.592;2023-04-25T13:35:08;10.63;;;3.10;;
67248;SDS011;63247;54.300;18.592;2023-04-25T13:37:35;8.82;;;3.20;;
67248;SDS011;63247;54.300;18.592;2023-04-25T13:40:02;8.20;;;3.40;;
67248;SDS011;63247;54.300;18.592;2023-04-25T13:42:30;6.95;;;3.15;;
67248;SDS011;63247;54.300;18.592;2023-04-25T13:44:55;8.55;;;3.20;;
67248;SDS011;63247;54.300;18.592;2023-04-25T13:47:21;8.20;;;3.20;;
67248;SDS011;63247;54.300;18.592;2023-04-25T13:49:48;7.57;;;3.13;;
67248;SDS011;63247;54.300;18.592;2023-04-25T13:52:13;7.40;;;2.93;;
67248;SDS011;63247;54.300;18.592;2023-04-25T13:54:39;6.73;;;3.20;;
67248;SDS011;63247;54.300;18.592;2023-04-25T13:57:04;9.35;;;3.85;;
67248;SDS011;63247;54.300;18.592;2023-04-25T13:59:30;6.77;;;3.40;;
67248;SDS011;63247;54.300;18.592;2023-04-25T14:01:56;9.60;;;3.63;;
67248;SDS011;63247;54.300;18.592;2023-04-25T14:04:21;9.90;;;3.50;;
67248;SDS011;63247;54.300;18.592;2023-04-25T14:06:47;7.97;;;3.20;;
67248;SDS011;63247;54.300;18.592;2023-04-25T14:09:12;8.40;;;3.38;;
67248;SDS011;63247;54.300;18.592;2023-04-25T14:11:38;7.57;;;3.23;;
67248;SDS011;63247;54.300;18.592;2023-04-25T14:14:04;8.07;;;3.15;;
67248;SDS011;63247;54.300;18.592;2023-04-25T14:16:29;6.23;;;3.03;;
67248;SDS011;63247;54.300;18.592;2023-04-25T14:18:57;10.32;;;3.30;;
67248;SDS011;63247;54.300;18.592;2023-04-25T14:21:23;9.77;;;3.30;;
67248;SDS011;63247;54.300;18.592;2023-04-25T14:23:49;12.93;;;4.43;;
67248;SDS011;63247;54.300;18.592;2023-04-25T14:26:14;8.40;;;3.63;;
67248;SDS011;63247;54.300;18.592;2023-04-25T14:28:40;9.02;;;3.42;;
67248;SDS011;63247;54.300;18.592;2023-04-25T14:31:05;13.27;;;3.77;;
67248;SDS011;63247;54.300;18.592;2023-04-25T14:33:31;14.57;;;4.47;;
67248;SDS011;63247;54.300;18.592;2023-04-25T14:35:57;10.77;;;4.13;;
67248;SDS011;63247;54.300;18.592;2023-04-25T14:38:22;11.30;;;3.30;;
67248;SDS011;63247;54.300;18.592;2023-04-25T14:40:49;8.48;;;3.08;;